sensor_id;sensor_type;location;lat;lon;timestamp;P1;durP1;ratioP1;P2;durP2;ratioP2
71503;SDS011;59323;50.874;7.028;2023-07-31T00:01:01;8.77;;;2.33;;
71503;SDS011;59323;50.874;7.028;2023-07-31T00:03:26;8.53;;;2.30;;
71503;SDS011;59323;50.874;7.028;2023-07-31T00:05:51;7.37;;;2.67;;
71503;SDS011;59323;50.874;7.028;2023-07-31T00:08:17;8.07;;;2.57;;
71503;SDS011;59323;50.874;7.028;2023-07-31T00:10:42;7.63;;;2.23;;
71503;SDS011;59323;50.874;7.028;2023-07-31T00:13:07;6.87;;;2.10;;
71503;SDS011;59323;50.874;7.028;2023-07-31T00:15:33;8.83;;;2.47;;
71503;SDS011;59323;50.874;7.028;2023-07-31T00:17:58;11.13;;;2.73;;
71503;SDS011;59323;50.874;7.028;2023-07-31T00:20:23;10.83;;;2.40;;
71503;SDS011;59323;50.874;7.028;2023-07-31T00:22:49;6.13;;;1.80;;
71503;SDS011;59323;50.874;7.028;2023-07-31T00:25:14;12.97;;;2.40;;
71503;SDS011;59323;50.874;7.028;2023-07-31T00:27:40;9.37;;;2.63;;
71503;SDS011;59323;50.874;7.028;2023-07-31T00:30:09;7.60;;;2.10;;
71503;SDS011;59323;50.874;7.028;2023-07-31T00:32:35;11.35;;;3.10;;
71503;SDS011;59323;50.874;7.028;2023-07-31T00:35:00;8.17;;;2.63;;
71503;SDS011;59323;50.874;7.028;2023-07-31T00:37:26;9.57;;;3.33;;
71503;SDS011;59323;50.874;7.028;2023-07-31T00:39:52;5.40;;;1.90;;
71503;SDS011;59323;50.874;7.028;2023-07-31T00:42:17;10.03;;;2.53;;
71503;SDS011;59323;50.874;7.028;2023-07-31T00:44:42;5.73;;;1.67;;
71503;SDS011;59323;50.874;7.028;2023-07-31T00:47:08;8.05;;;2.13;;
71503;SDS011;59323;50.874;7.028;2023-07-31T00:49:33;8.57;;;1.90;;
71503;SDS011;59323;50.874;7.028;2023-07-31T00:51:59;7.33;;;2.10;;
71503;SDS011;59323;50.874;7.028;2023-07-31T00:54:24;7.13;;;1.90;;
71503;SDS011;59323;50.874;7.028;2023-07-31T00:56:50;6.80;;;1.88;;
71503;SDS011;59323;50.874;7.028;2023-07-31T00:59:17;8.75;;;2.10;;
71503;SDS011;59323;50.874;7.028;2023-07-31T01:01:43;6.40;;;1.50;;
71503;SDS011;59323;50.874;7.028;2023-07-31T01:04:10;6.90;;;1.85;;
71503;SDS011;59323;50.874;7.028;2023-07-31T01:06:36;7.50;;;2.10;;
71503;SDS011;59323;50.874;7.028;2023-07-31T01:09:20;7.77;;;1.70;;
71503;SDS011;59323;50.874;7.028;2023-07-31T01:12:03;6.68;;;1.65;;
71503;SDS011;59323;50.874;7.028;2023-07-31T01:14:31;7.47;;;2.10;;
71503;SDS011;59323;50.874;7.028;2023-07-31T01:16:57;5.43;;;1.60;;
71503;SDS011;59323;50.874;7.028;2023-07-31T01:19:23;7.00;;;2.97;;
71503;SDS011;59323;50.874;7.028;2023-07-31T01:22:12;7.03;;;1.70;;
71503;SDS011;59323;50.874;7.028;2023-07-31T01:27:30;6.90;;;2.38;;
71503;SDS011;59323;50.874;7.028;2023-07-31T01:30:00;8.80;;;2.13;;
71503;SDS011;59323;50.874;7.028;2023-07-31T01:32:35;5.83;;;1.80;;
71503;SDS011;59323;50.874;7.028;2023-07-31T01:35:04;6.93;;;1.90;;
71503;SDS011;59323;50.874;7.028;2023-07-31T01:37:30;5.47;;;2.13;;
71503;SDS011;59323;50.874;7.028;2023-07-31T01:39:55;6.97;;;2.23;;
71503;SDS011;59323;50.874;7.028;2023-07-31T01:42:21;5.63;;;1.63;;
71503;SDS011;59323;50.874;7.028;2023-07-31T01:44:46;6.17;;;1.90;;
71503;SDS011;59323;50.874;7.028;2023-07-31T01:47:11;6.87;;;1.60;;
71503;SDS011;59323;50.874;7.028;2023-07-31T01:49:37;6.17;;;1.80;;
71503;SDS011;59323;50.874;7.028;2023-07-31T01:52:02;6.37;;;2.00;;
71503;SDS011;59323;50.874;7.028;2023-07-31T01:54:28;6.85;;;1.60;;
71503;SDS011;59323;50.874;7.028;2023-07-31T01:56:53;7.13;;;2.50;;
71503;SDS011;59323;50.874;7.028;2023-07-31T01:59:18;7.17;;;2.30;;
71503;SDS011;59323;50.874;7.028;2023-07-31T02:01:44;8.63;;;2.13;;
71503;SDS011;59323;50.874;7.028;2023-07-31T02:04:09;8.83;;;2.10;;
71503;SDS011;59323;50.874;7.028;2023-07-31T02:06:34;6.87;;;2.23;;
71503;SDS011;59323;50.874;7.028;2023-07-31T02:09:00;6.93;;;1.88;;
71503;SDS011;59323;50.874;7.028;2023-07-31T02:11:25;6.90;;;2.30;;
71503;SDS011;59323;50.874;7.028;2023-07-31T02:13:50;6.63;;;2.03;;
71503;SDS011;59323;50.874;7.028;2023-07-31T02:16:16;8.13;;;2.30;;
71503;SDS011;59323;50.874;7.028;2023-07-31T02:18:41;6.33;;;2.10;;
71503;SDS011;59323;50.874;7.028;2023-07-31T02:21:06;10.77;;;2.47;;
71503;SDS011;59323;50.874;7.028;2023-07-31T02:23:32;5.90;;;2.28;;
71503;SDS011;59323;50.874;7.028;2023-07-31T02:25:57;6.57;;;2.20;;
71503;SDS011;59323;50.874;7.028;2023-07-31T02:28:22;8.00;;;2.47;;
71503;SDS011;59323;50.874;7.028;2023-07-31T02:30:49;6.07;;;2.33;;
71503;SDS011;59323;50.874;7.028;2023-07-31T02:33:15;6.60;;;2.00;;
71503;SDS011;59323;50.874;7.028;2023-07-31T02:35:41;8.55;;;2.13;;
71503;SDS011;59323;50.874;7.028;2023-07-31T02:38:06;8.20;;;2.47;;
71503;SDS011;59323;50.874;7.028;2023-07-31T02:40:32;6.27;;;2.30;;
71503;SDS011;59323;50.874;7.028;2023-07-31T02:42:57;7.77;;;2.40;;
71503;SDS011;59323;50.874;7.028;2023-07-31T02:45:23;7.07;;;2.73;;
71503;SDS011;59323;50.874;7.028;2023-07-31T02:47:48;6.57;;;2.30;;
71503;SDS011;59323;50.874;7.028;2023-07-31T02:50:13;8.53;;;2.60;;
71503;SDS011;59323;50.874;7.028;2023-07-31T02:52:39;5.73;;;2.30;;
71503;SDS011;59323;50.874;7.028;2023-07-31T02:55:05;8.20;;;2.80;;
71503;SDS011;59323;50.874;7.028;2023-07-31T02:57:31;10.15;;;2.60;;
71503;SDS011;59323;50.874;7.028;2023-07-31T02:59:56;6.50;;;2.23;;
71503;SDS011;59323;50.874;7.028;2023-07-31T03:02:21;7.33;;;2.50;;
71503;SDS011;59323;50.874;7.028;2023-07-31T03:04:47;9.53;;;2.67;;
71503;SDS011;59323;50.874;7.028;2023-07-31T03:07:12;7.83;;;2.43;;
71503;SDS011;59323;50.874;7.028;2023-07-31T03:09:37;7.07;;;2.60;;
71503;SDS011;59323;50.874;7.028;2023-07-31T03:12:03;9.50;;;2.40;;
71503;SDS011;59323;50.874;7.028;2023-07-31T03:14:28;9.93;;;2.70;;
71503;SDS011;59323;50.874;7.028;2023-07-31T03:16:54;9.83;;;2.20;;
71503;SDS011;59323;50.874;7.028;2023-07-31T03:19:19;7.60;;;2.33;;
71503;SDS011;59323;50.874;7.028;2023-07-31T03:21:45;7.10;;;2.43;;
71503;SDS011;59323;50.874;7.028;2023-07-31T03:24:10;11.27;;;2.47;;
71503;SDS011;59323;50.874;7.028;2023-07-31T03:26:37;10.43;;;2.58;;
71503;SDS011;59323;50.874;7.028;2023-07-31T03:29:03;6.85;;;2.55;;
71503;SDS011;59323;50.874;7.028;2023-07-31T03:31:28;6.80;;;2.10;;
71503;SDS011;59323;50.874;7.028;2023-07-31T03:33:53;11.47;;;2.63;;
71503;SDS011;59323;50.874;7.028;2023-07-31T03:36:19;9.43;;;2.20;;
71503;SDS011;59323;50.874;7.028;2023-07-31T03:38:45;8.70;;;2.33;;
71503;SDS011;59323;50.874;7.028;2023-07-31T03:41:11;10.02;;;2.42;;
71503;SDS011;59323;50.874;7.028;2023-07-31T03:43:36;13.23;;;3.07;;
71503;SDS011;59323;50.874;7.028;2023-07-31T03:46:02;7.97;;;2.40;;
71503;SDS011;59323;50.874;7.028;2023-07-31T03:48:27;6.47;;;2.40;;
71503;SDS011;59323;50.874;7.028;2023-07-31T03:50:53;6.78;;;2.25;;
71503;SDS011;59323;50.874;7.028;2023-07-31T03:53:18;6.73;;;2.47;;
71503;SDS011;59323;50.874;7.028;2023-07-31T03:55:44;7.93;;;2.60;;
71503;SDS011;59323;50.874;7.028;2023-07-31T03:58:09;10.20;;;3.30;;
71503;SDS011;59323;50.874;7.028;2023-07-31T04:00:34;9.33;;;3.30;;
71503;SDS011;59323;50.874;7.028;2023-07-31T04:03:00;9.32;;;3.10;;
71503;SDS011;59323;50.874;7.028;2023-07-31T04:05:25;6.43;;;2.73;;
71503;SDS011;59323;50.874;7.028;2023-07-31T04:07:51;9.00;;;2.90;;
71503;SDS011;59323;50.874;7.028;2023-07-31T04:10:16;11.17;;;3.23;;
71503;SDS011;59323;50.874;7.028;2023-07-31T04:12:41;10.15;;;2.80;;
71503;SDS011;59323;50.874;7.028;2023-07-31T04:15:07;7.00;;;2.63;;
71503;SDS011;59323;50.874;7.028;2023-07-31T04:17:32;6.77;;;2.50;;
71503;SDS011;59323;50.874;7.028;2023-07-31T04:19:58;8.57;;;2.10;;
71503;SDS011;59323;50.874;7.028;2023-07-31T04:22:23;8.60;;;2.60;;
71503;SDS011;59323;50.874;7.028;2023-07-31T04:24:48;8.52;;;2.67;;
71503;SDS011;59323;50.874;7.028;2023-07-31T04:27:14;7.70;;;2.57;;
71503;SDS011;59323;50.874;7.028;2023-07-31T04:29:39;8.93;;;2.60;;
71503;SDS011;59323;50.874;7.028;2023-07-31T04:32:07;9.23;;;3.05;;
71503;SDS011;59323;50.874;7.028;2023-07-31T04:34:32;7.27;;;2.47;;
71503;SDS011;59323;50.874;7.028;2023-07-31T04:36:58;7.63;;;2.40;;
71503;SDS011;59323;50.874;7.028;2023-07-31T04:39:23;7.20;;;2.37;;
71503;SDS011;59323;50.874;7.028;2023-07-31T04:41:48;8.07;;;2.73;;
71503;SDS011;59323;50.874;7.028;2023-07-31T04:44:14;9.02;;;2.58;;
71503;SDS011;59323;50.874;7.028;2023-07-31T04:46:39;9.87;;;3.43;;
71503;SDS011;59323;50.874;7.028;2023-07-31T04:49:04;8.23;;;2.67;;
71503;SDS011;59323;50.874;7.028;2023-07-31T04:51:30;7.63;;;3.20;;
71503;SDS011;59323;50.874;7.028;2023-07-31T04:53:56;7.70;;;3.00;;
71503;SDS011;59323;50.874;7.028;2023-07-31T04:56:21;6.25;;;2.70;;
71503;SDS011;59323;50.874;7.028;2023-07-31T04:58:46;9.07;;;2.73;;
71503;SDS011;59323;50.874;7.028;2023-07-31T05:01:12;6.83;;;2.27;;
71503;SDS011;59323;50.874;7.028;2023-07-31T05:03:37;8.03;;;2.83;;
71503;SDS011;59323;50.874;7.028;2023-07-31T05:06:02;6.80;;;2.70;;
71503;SDS011;59323;50.874;7.028;2023-07-31T05:08:28;6.90;;;2.70;;
71503;SDS011;59323;50.874;7.028;2023-07-31T05:10:53;8.23;;;2.60;;
71503;SDS011;59323;50.874;7.028;2023-07-31T05:13:18;7.60;;;2.10;;
71503;SDS011;59323;50.874;7.028;2023-07-31T05:15:44;5.80;;;2.13;;
71503;SDS011;59323;50.874;7.028;2023-07-31T05:18:10;8.13;;;2.47;;
71503;SDS011;59323;50.874;7.028;2023-07-31T05:20:35;7.60;;;2.50;;
71503;SDS011;59323;50.874;7.028;2023-07-31T05:23:00;7.90;;;2.33;;
71503;SDS011;59323;50.874;7.028;2023-07-31T05:25:26;8.77;;;3.00;;
71503;SDS011;59323;50.874;7.028;2023-07-31T05:27:51;7.40;;;2.23;;
71503;SDS011;59323;50.874;7.028;2023-07-31T05:30:16;11.17;;;2.47;;
71503;SDS011;59323;50.874;7.028;2023-07-31T05:32:42;7.70;;;3.07;;
71503;SDS011;59323;50.874;7.028;2023-07-31T05:35:07;8.17;;;3.03;;
71503;SDS011;59323;50.874;7.028;2023-07-31T05:37:32;12.47;;;3.17;;
71503;SDS011;59323;50.874;7.028;2023-07-31T05:39:58;7.40;;;2.78;;
71503;SDS011;59323;50.874;7.028;2023-07-31T05:42:23;7.30;;;2.23;;
71503;SDS011;59323;50.874;7.028;2023-07-31T05:44:49;6.50;;;3.07;;
71503;SDS011;59323;50.874;7.028;2023-07-31T05:47:14;7.70;;;2.30;;
71503;SDS011;59323;50.874;7.028;2023-07-31T05:49:40;8.02;;;2.80;;
71503;SDS011;59323;50.874;7.028;2023-07-31T05:52:05;7.97;;;2.23;;
71503;SDS011;59323;50.874;7.028;2023-07-31T05:54:31;7.25;;;2.58;;
71503;SDS011;59323;50.874;7.028;2023-07-31T05:56:57;7.67;;;2.23;;
71503;SDS011;59323;50.874;7.028;2023-07-31T05:59:22;6.70;;;2.83;;
71503;SDS011;59323;50.874;7.028;2023-07-31T06:01:47;6.60;;;2.33;;
71503;SDS011;59323;50.874;7.028;2023-07-31T06:04:13;5.80;;;2.30;;
71503;SDS011;59323;50.874;7.028;2023-07-31T06:06:38;9.13;;;2.60;;
71503;SDS011;59323;50.874;7.028;2023-07-31T06:09:03;6.03;;;2.13;;
71503;SDS011;59323;50.874;7.028;2023-07-31T06:11:29;6.37;;;2.10;;
71503;SDS011;59323;50.874;7.028;2023-07-31T06:13:54;6.20;;;2.37;;
71503;SDS011;59323;50.874;7.028;2023-07-31T06:16:20;5.30;;;2.10;;
71503;SDS011;59323;50.874;7.028;2023-07-31T06:18:46;7.47;;;2.13;;
71503;SDS011;59323;50.874;7.028;2023-07-31T06:21:12;9.00;;;2.60;;
71503;SDS011;59323;50.874;7.028;2023-07-31T06:23:37;7.57;;;2.63;;
71503;SDS011;59323;50.874;7.028;2023-07-31T06:26:02;7.47;;;2.47;;
71503;SDS011;59323;50.874;7.028;2023-07-31T06:28:28;7.07;;;2.63;;
71503;SDS011;59323;50.874;7.028;2023-07-31T06:30:55;8.98;;;2.45;;
71503;SDS011;59323;50.874;7.028;2023-07-31T06:33:33;6.30;;;2.22;;
71503;SDS011;59323;50.874;7.028;2023-07-31T06:36:02;6.78;;;2.58;;
71503;SDS011;59323;50.874;7.028;2023-07-31T06:38:27;8.87;;;2.80;;
71503;SDS011;59323;50.874;7.028;2023-07-31T06:40:53;7.17;;;3.10;;
71503;SDS011;59323;50.874;7.028;2023-07-31T06:43:18;7.67;;;3.00;;
71503;SDS011;59323;50.874;7.028;2023-07-31T06:45:47;6.75;;;2.22;;
71503;SDS011;59323;50.874;7.028;2023-07-31T06:48:15;6.85;;;2.25;;
71503;SDS011;59323;50.874;7.028;2023-07-31T06:50:40;10.17;;;3.00;;
71503;SDS011;59323;50.874;7.028;2023-07-31T06:53:05;6.60;;;2.30;;
71503;SDS011;59323;50.874;7.028;2023-07-31T06:55:31;8.98;;;2.70;;
71503;SDS011;59323;50.874;7.028;2023-07-31T06:57:56;8.57;;;2.80;;
71503;SDS011;59323;50.874;7.028;2023-07-31T07:00:22;6.80;;;2.37;;
71503;SDS011;59323;50.874;7.028;2023-07-31T07:02:48;8.27;;;2.80;;
71503;SDS011;59323;50.874;7.028;2023-07-31T07:05:14;7.18;;;2.67;;
71503;SDS011;59323;50.874;7.028;2023-07-31T07:07:40;6.53;;;2.70;;
71503;SDS011;59323;50.874;7.028;2023-07-31T07:10:05;8.48;;;2.53;;
71503;SDS011;59323;50.874;7.028;2023-07-31T07:12:32;7.20;;;2.47;;
71503;SDS011;59323;50.874;7.028;2023-07-31T07:14:58;8.80;;;2.60;;
71503;SDS011;59323;50.874;7.028;2023-07-31T07:17:25;7.68;;;2.75;;
71503;SDS011;59323;50.874;7.028;2023-07-31T07:19:52;8.70;;;2.63;;
71503;SDS011;59323;50.874;7.028;2023-07-31T07:22:18;8.82;;;3.03;;
71503;SDS011;59323;50.874;7.028;2023-07-31T07:24:44;6.73;;;2.30;;
71503;SDS011;59323;50.874;7.028;2023-07-31T07:27:10;7.97;;;2.63;;
71503;SDS011;59323;50.874;7.028;2023-07-31T07:29:37;6.88;;;2.70;;
71503;SDS011;59323;50.874;7.028;2023-07-31T07:32:03;8.93;;;2.75;;
71503;SDS011;59323;50.874;7.028;2023-07-31T07:34:29;8.03;;;2.73;;
71503;SDS011;59323;50.874;7.028;2023-07-31T07:36:54;9.13;;;2.93;;
71503;SDS011;59323;50.874;7.028;2023-07-31T07:39:20;7.30;;;2.72;;
71503;SDS011;59323;50.874;7.028;2023-07-31T07:41:45;9.40;;;3.07;;
71503;SDS011;59323;50.874;7.028;2023-07-31T07:44:11;9.50;;;3.10;;
71503;SDS011;59323;50.874;7.028;2023-07-31T07:46:39;6.95;;;2.83;;
71503;SDS011;59323;50.874;7.028;2023-07-31T07:49:05;7.47;;;2.53;;
71503;SDS011;59323;50.874;7.028;2023-07-31T07:51:31;9.37;;;3.10;;
71503;SDS011;59323;50.874;7.028;2023-07-31T07:54:01;8.70;;;3.00;;
71503;SDS011;59323;50.874;7.028;2023-07-31T07:56:31;6.20;;;2.40;;
71503;SDS011;59323;50.874;7.028;2023-07-31T07:58:58;9.85;;;2.55;;
71503;SDS011;59323;50.874;7.028;2023-07-31T08:01:23;7.83;;;3.03;;
71503;SDS011;59323;50.874;7.028;2023-07-31T08:03:49;11.45;;;2.67;;
71503;SDS011;59323;50.874;7.028;2023-07-31T08:06:15;8.93;;;2.92;;
71503;SDS011;59323;50.874;7.028;2023-07-31T08:08:40;7.00;;;3.07;;
71503;SDS011;59323;50.874;7.028;2023-07-31T08:11:06;7.15;;;2.50;;
71503;SDS011;59323;50.874;7.028;2023-07-31T08:13:32;7.78;;;2.53;;
71503;SDS011;59323;50.874;7.028;2023-07-31T08:16:22;8.17;;;2.27;;
71503;SDS011;59323;50.874;7.028;2023-07-31T08:18:49;9.23;;;2.53;;
71503;SDS011;59323;50.874;7.028;2023-07-31T08:21:15;7.25;;;2.70;;
71503;SDS011;59323;50.874;7.028;2023-07-31T08:23:41;6.73;;;2.70;;
71503;SDS011;59323;50.874;7.028;2023-07-31T08:26:06;6.70;;;2.42;;
71503;SDS011;59323;50.874;7.028;2023-07-31T08:28:32;6.87;;;2.40;;
71503;SDS011;59323;50.874;7.028;2023-07-31T08:30:58;8.57;;;2.90;;
71503;SDS011;59323;50.874;7.028;2023-07-31T08:33:31;7.75;;;3.05;;
71503;SDS011;59323;50.874;7.028;2023-07-31T08:36:06;7.77;;;2.33;;
71503;SDS011;59323;50.874;7.028;2023-07-31T08:38:31;8.65;;;2.72;;
71503;SDS011;59323;50.874;7.028;2023-07-31T08:40:57;7.68;;;2.85;;
71503;SDS011;59323;50.874;7.028;2023-07-31T08:43:26;7.65;;;2.75;;
71503;SDS011;59323;50.874;7.028;2023-07-31T08:46:02;6.23;;;2.07;;
71503;SDS011;59323;50.874;7.028;2023-07-31T08:48:34;6.68;;;2.22;;
71503;SDS011;59323;50.874;7.028;2023-07-31T08:51:24;4.63;;;1.90;;
71503;SDS011;59323;50.874;7.028;2023-07-31T08:53:52;5.32;;;2.10;;
71503;SDS011;59323;50.874;7.028;2023-07-31T08:56:18;4.75;;;1.83;;
71503;SDS011;59323;50.874;7.028;2023-07-31T08:58:44;7.90;;;3.10;;
71503;SDS011;59323;50.874;7.028;2023-07-31T09:01:12;6.43;;;2.50;;
71503;SDS011;59323;50.874;7.028;2023-07-31T09:03:39;5.65;;;2.10;;
71503;SDS011;59323;50.874;7.028;2023-07-31T09:06:06;6.25;;;2.60;;
71503;SDS011;59323;50.874;7.028;2023-07-31T09:08:32;5.30;;;2.10;;
71503;SDS011;59323;50.874;7.028;2023-07-31T09:11:01;5.85;;;1.80;;
71503;SDS011;59323;50.874;7.028;2023-07-31T09:13:30;6.32;;;2.25;;
71503;SDS011;59323;50.874;7.028;2023-07-31T09:15:57;6.30;;;2.67;;
71503;SDS011;59323;50.874;7.028;2023-07-31T09:18:22;5.25;;;2.03;;
71503;SDS011;59323;50.874;7.028;2023-07-31T09:21:10;6.78;;;2.60;;
71503;SDS011;59323;50.874;7.028;2023-07-31T09:23:45;7.83;;;2.83;;
71503;SDS011;59323;50.874;7.028;2023-07-31T09:26:28;5.45;;;2.20;;
71503;SDS011;59323;50.874;7.028;2023-07-31T09:29:00;6.57;;;2.10;;
71503;SDS011;59323;50.874;7.028;2023-07-31T09:31:32;6.57;;;2.20;;
71503;SDS011;59323;50.874;7.028;2023-07-31T09:33:57;6.43;;;1.90;;
71503;SDS011;59323;50.874;7.028;2023-07-31T09:36:23;6.73;;;2.00;;
71503;SDS011;59323;50.874;7.028;2023-07-31T09:38:48;6.83;;;1.80;;
71503;SDS011;59323;50.874;7.028;2023-07-31T09:41:14;6.50;;;1.97;;
71503;SDS011;59323;50.874;7.028;2023-07-31T09:43:39;5.73;;;1.80;;
71503;SDS011;59323;50.874;7.028;2023-07-31T09:46:04;6.50;;;2.03;;
71503;SDS011;59323;50.874;7.028;2023-07-31T09:48:38;6.07;;;1.90;;
71503;SDS011;59323;50.874;7.028;2023-07-31T09:51:04;5.13;;;1.60;;
71503;SDS011;59323;50.874;7.028;2023-07-31T09:53:30;9.48;;;3.00;;
71503;SDS011;59323;50.874;7.028;2023-07-31T09:55:55;11.17;;;2.00;;
71503;SDS011;59323;50.874;7.028;2023-07-31T09:58:23;5.05;;;2.00;;
71503;SDS011;59323;50.874;7.028;2023-07-31T10:00:51;6.83;;;2.07;;
71503;SDS011;59323;50.874;7.028;2023-07-31T10:03:16;5.90;;;2.03;;
71503;SDS011;59323;50.874;7.028;2023-07-31T10:05:45;5.20;;;2.07;;
71503;SDS011;59323;50.874;7.028;2023-07-31T10:08:14;5.85;;;1.58;;
71503;SDS011;59323;50.874;7.028;2023-07-31T10:10:46;3.75;;;1.60;;
71503;SDS011;59323;50.874;7.028;2023-07-31T10:13:19;6.28;;;2.20;;
71503;SDS011;59323;50.874;7.028;2023-07-31T10:16:18;4.55;;;1.80;;
71503;SDS011;59323;50.874;7.028;2023-07-31T10:18:45;5.87;;;1.87;;
71503;SDS011;59323;50.874;7.028;2023-07-31T10:21:11;6.05;;;1.90;;
71503;SDS011;59323;50.874;7.028;2023-07-31T10:23:41;6.13;;;1.95;;
71503;SDS011;59323;50.874;7.028;2023-07-31T10:26:08;4.88;;;1.70;;
71503;SDS011;59323;50.874;7.028;2023-07-31T10:28:34;8.48;;;2.30;;
71503;SDS011;59323;50.874;7.028;2023-07-31T10:31:07;6.00;;;1.80;;
71503;SDS011;59323;50.874;7.028;2023-07-31T10:33:32;7.30;;;2.15;;
71503;SDS011;59323;50.874;7.028;2023-07-31T10:38:42;5.65;;;2.00;;
71503;SDS011;59323;50.874;7.028;2023-07-31T10:41:08;5.77;;;1.90;;
71503;SDS011;59323;50.874;7.028;2023-07-31T10:43:35;4.80;;;1.83;;
71503;SDS011;59323;50.874;7.028;2023-07-31T10:46:05;8.38;;;2.72;;
71503;SDS011;59323;50.874;7.028;2023-07-31T10:48:35;8.38;;;2.03;;
71503;SDS011;59323;50.874;7.028;2023-07-31T10:51:06;7.30;;;2.22;;
71503;SDS011;59323;50.874;7.028;2023-07-31T10:53:36;5.27;;;2.00;;
71503;SDS011;59323;50.874;7.028;2023-07-31T10:56:02;5.40;;;2.03;;
71503;SDS011;59323;50.874;7.028;2023-07-31T10:58:29;6.13;;;2.00;;
71503;SDS011;59323;50.874;7.028;2023-07-31T11:00:58;4.22;;;1.80;;
71503;SDS011;59323;50.874;7.028;2023-07-31T11:03:25;5.50;;;2.00;;
71503;SDS011;59323;50.874;7.028;2023-07-31T11:05:59;4.00;;;1.58;;
71503;SDS011;59323;50.874;7.028;2023-07-31T11:15:54;2.90;;;1.30;;
71503;SDS011;59323;50.874;7.028;2023-07-31T11:18:19;5.27;;;1.00;;
71503;SDS011;59323;50.874;7.028;2023-07-31T11:20:45;3.40;;;1.13;;
71503;SDS011;59323;50.874;7.028;2023-07-31T11:23:11;2.80;;;1.02;;
71503;SDS011;59323;50.874;7.028;2023-07-31T11:25:37;5.88;;;1.60;;
71503;SDS011;59323;50.874;7.028;2023-07-31T11:28:09;2.78;;;1.08;;
71503;SDS011;59323;50.874;7.028;2023-07-31T11:30:36;3.40;;;1.60;;
71503;SDS011;59323;50.874;7.028;2023-07-31T11:33:03;3.55;;;1.50;;
71503;SDS011;59323;50.874;7.028;2023-07-31T11:35:34;4.38;;;1.40;;
71503;SDS011;59323;50.874;7.028;2023-07-31T11:38:10;3.90;;;1.45;;
71503;SDS011;59323;50.874;7.028;2023-07-31T11:40:41;3.95;;;1.10;;
71503;SDS011;59323;50.874;7.028;2023-07-31T11:43:07;4.93;;;1.10;;
71503;SDS011;59323;50.874;7.028;2023-07-31T11:45:33;3.78;;;1.27;;
71503;SDS011;59323;50.874;7.028;2023-07-31T11:48:00;4.63;;;1.20;;
71503;SDS011;59323;50.874;7.028;2023-07-31T11:50:26;2.67;;;1.10;;
71503;SDS011;59323;50.874;7.028;2023-07-31T11:52:59;1.80;;;0.93;;
71503;SDS011;59323;50.874;7.028;2023-07-31T11:55:28;3.20;;;1.00;;
71503;SDS011;59323;50.874;7.028;2023-07-31T11:57:55;2.50;;;0.90;;
71503;SDS011;59323;50.874;7.028;2023-07-31T12:00:22;2.63;;;1.42;;
71503;SDS011;59323;50.874;7.028;2023-07-31T12:02:48;3.22;;;0.90;;
71503;SDS011;59323;50.874;7.028;2023-07-31T12:05:15;2.95;;;1.33;;
71503;SDS011;59323;50.874;7.028;2023-07-31T12:07:47;1.70;;;0.80;;
71503;SDS011;59323;50.874;7.028;2023-07-31T12:10:31;1.40;;;0.60;;
71503;SDS011;59323;50.874;7.028;2023-07-31T12:17:57;1.90;;;1.00;;
71503;SDS011;59323;50.874;7.028;2023-07-31T12:20:22;3.10;;;0.90;;
71503;SDS011;59323;50.874;7.028;2023-07-31T12:22:48;2.07;;;0.70;;
71503;SDS011;59323;50.874;7.028;2023-07-31T12:25:16;2.73;;;1.20;;
71503;SDS011;59323;50.874;7.028;2023-07-31T12:27:44;2.38;;;1.20;;
71503;SDS011;59323;50.874;7.028;2023-07-31T12:30:56;4.20;;;1.30;;
71503;SDS011;59323;50.874;7.028;2023-07-31T12:33:03;2.75;;;1.20;;
71503;SDS011;59323;50.874;7.028;2023-07-31T12:35:34;2.73;;;1.10;;
71503;SDS011;59323;50.874;7.028;2023-07-31T12:38:01;4.68;;;1.45;;
71503;SDS011;59323;50.874;7.028;2023-07-31T12:40:27;4.18;;;1.63;;
71503;SDS011;59323;50.874;7.028;2023-07-31T12:42:52;3.40;;;1.50;;
71503;SDS011;59323;50.874;7.028;2023-07-31T12:45:18;3.88;;;1.40;;
71503;SDS011;59323;50.874;7.028;2023-07-31T12:47:43;2.70;;;1.23;;
71503;SDS011;59323;50.874;7.028;2023-07-31T12:50:09;5.50;;;1.40;;
71503;SDS011;59323;50.874;7.028;2023-07-31T12:52:34;3.43;;;1.40;;
71503;SDS011;59323;50.874;7.028;2023-07-31T12:55:00;3.50;;;1.20;;
71503;SDS011;59323;50.874;7.028;2023-07-31T12:57:25;4.60;;;1.50;;
71503;SDS011;59323;50.874;7.028;2023-07-31T12:59:50;5.10;;;2.07;;
71503;SDS011;59323;50.874;7.028;2023-07-31T13:02:16;4.50;;;1.67;;
71503;SDS011;59323;50.874;7.028;2023-07-31T13:04:41;4.33;;;1.80;;
71503;SDS011;59323;50.874;7.028;2023-07-31T13:07:06;6.03;;;2.23;;
71503;SDS011;59323;50.874;7.028;2023-07-31T13:09:32;6.47;;;2.57;;
71503;SDS011;59323;50.874;7.028;2023-07-31T13:11:58;4.95;;;2.45;;
71503;SDS011;59323;50.874;7.028;2023-07-31T13:14:23;7.20;;;2.53;;
71503;SDS011;59323;50.874;7.028;2023-07-31T13:16:48;4.90;;;2.13;;
71503;SDS011;59323;50.874;7.028;2023-07-31T13:19:14;6.37;;;2.60;;
71503;SDS011;59323;50.874;7.028;2023-07-31T13:21:39;4.70;;;2.00;;
71503;SDS011;59323;50.874;7.028;2023-07-31T13:24:05;5.80;;;2.70;;
71503;SDS011;59323;50.874;7.028;2023-07-31T13:26:30;7.30;;;2.90;;
71503;SDS011;59323;50.874;7.028;2023-07-31T13:28:56;6.30;;;2.50;;
71503;SDS011;59323;50.874;7.028;2023-07-31T13:31:21;5.40;;;1.90;;
71503;SDS011;59323;50.874;7.028;2023-07-31T13:33:46;6.18;;;2.20;;
71503;SDS011;59323;50.874;7.028;2023-07-31T13:36:12;6.13;;;1.90;;
71503;SDS011;59323;50.874;7.028;2023-07-31T13:38:39;7.25;;;2.42;;
71503;SDS011;59323;50.874;7.028;2023-07-31T13:41:04;5.23;;;2.40;;
71503;SDS011;59323;50.874;7.028;2023-07-31T13:43:30;5.40;;;2.25;;
71503;SDS011;59323;50.874;7.028;2023-07-31T13:45:56;5.03;;;1.70;;
71503;SDS011;59323;50.874;7.028;2023-07-31T13:48:21;6.07;;;2.30;;
71503;SDS011;59323;50.874;7.028;2023-07-31T13:50:46;4.97;;;2.28;;
71503;SDS011;59323;50.874;7.028;2023-07-31T13:53:12;3.87;;;2.10;;
71503;SDS011;59323;50.874;7.028;2023-07-31T13:55:37;5.60;;;2.43;;
71503;SDS011;59323;50.874;7.028;2023-07-31T13:58:03;5.60;;;2.00;;
71503;SDS011;59323;50.874;7.028;2023-07-31T14:00:28;4.40;;;2.13;;
71503;SDS011;59323;50.874;7.028;2023-07-31T14:02:54;5.37;;;2.10;;
71503;SDS011;59323;50.874;7.028;2023-07-31T14:05:20;6.45;;;2.38;;
71503;SDS011;59323;50.874;7.028;2023-07-31T14:07:45;6.10;;;1.97;;
71503;SDS011;59323;50.874;7.028;2023-07-31T14:10:10;6.17;;;1.73;;
71503;SDS011;59323;50.874;7.028;2023-07-31T14:12:36;4.00;;;1.80;;
71503;SDS011;59323;50.874;7.028;2023-07-31T14:15:01;4.83;;;2.00;;
71503;SDS011;59323;50.874;7.028;2023-07-31T14:17:27;3.83;;;1.75;;
71503;SDS011;59323;50.874;7.028;2023-07-31T14:19:53;3.80;;;1.50;;
71503;SDS011;59323;50.874;7.028;2023-07-31T14:22:30;3.27;;;1.57;;
71503;SDS011;59323;50.874;7.028;2023-07-31T14:24:58;4.63;;;1.85;;
71503;SDS011;59323;50.874;7.028;2023-07-31T14:27:23;4.30;;;1.87;;
71503;SDS011;59323;50.874;7.028;2023-07-31T14:29:49;4.10;;;1.90;;
71503;SDS011;59323;50.874;7.028;2023-07-31T14:32:14;6.13;;;2.20;;
71503;SDS011;59323;50.874;7.028;2023-07-31T14:34:40;5.30;;;2.30;;
71503;SDS011;59323;50.874;7.028;2023-07-31T14:37:05;5.00;;;1.90;;
71503;SDS011;59323;50.874;7.028;2023-07-31T14:39:31;5.43;;;2.57;;
71503;SDS011;59323;50.874;7.028;2023-07-31T14:41:56;5.47;;;2.37;;
71503;SDS011;59323;50.874;7.028;2023-07-31T14:44:21;4.70;;;1.70;;
71503;SDS011;59323;50.874;7.028;2023-07-31T14:46:46;5.47;;;2.37;;
71503;SDS011;59323;50.874;7.028;2023-07-31T14:49:12;5.07;;;1.90;;
71503;SDS011;59323;50.874;7.028;2023-07-31T14:51:37;3.77;;;2.03;;
71503;SDS011;59323;50.874;7.028;2023-07-31T14:54:03;4.73;;;2.00;;
71503;SDS011;59323;50.874;7.028;2023-07-31T14:56:28;6.00;;;1.90;;
71503;SDS011;59323;50.874;7.028;2023-07-31T14:58:53;3.97;;;1.60;;
71503;SDS011;59323;50.874;7.028;2023-07-31T15:01:19;5.07;;;2.10;;
71503;SDS011;59323;50.874;7.028;2023-07-31T15:03:44;4.93;;;1.60;;